»·PEaware :: N16RD KONT-KSNA

N16RD :: KONT-KSNA

FLIGHT INFORMATION

Flight Status: Arrived
Operator: Privately registered:
United States
More flights under this callsign
Pilot: Brett B. (12105)
Aircraft: CESSNA 152 AEROBAT
(C152)
More flights by this aircraft type
Origin: KONT Ontario Intl
United States
Destination: KSNA John Wayne-Orange Co
United States
More flights between these airports :: More routes between these airports
Route: KONT KSNA
File this flight plan on PilotEdge
Remarks:
Altitude:
(Current/Filed)
3,500ft
Speed:
(Current/Filed)
100kts
Departed: 15-Jul-18 09:58 AM
Arrived: 15-Jul-18 10:21 AM
Distance/Time
Traveled:
26nm/0:23
Distance/Time
To Go:
Arrived

Flight Plot

Page will automatically refresh every two minutes.


Map Options




Map Legend


Flown Route
Filed Route
Departure Airport
Arrival Airport
Navaid (VOR, NDB)
Fix

Horizontal Profiles

Position Reports

Time Latitude Longitude Heading Altitude Ground
Speed
15-Jul-18 09:33 34.060032 -117.592312 11 947ft 0kts
15-Jul-18 09:34 34.060033 -117.592312 11 947ft 0kts
15-Jul-18 09:35 34.060033 -117.592312 11 947ft 0kts
15-Jul-18 09:43 34.052240 -117.610599 301 947ft 0kts
15-Jul-18 09:44 34.052240 -117.610599 301 947ft 0kts
15-Jul-18 09:45 34.052240 -117.610599 301 947ft 0kts
15-Jul-18 09:46 34.052240 -117.610599 301 947ft 0kts
15-Jul-18 09:47 34.052240 -117.610599 301 947ft 0kts
15-Jul-18 09:48 34.052240 -117.610599 301 947ft 0kts
15-Jul-18 09:49 34.052663 -117.611114 347 947ft 9kts
15-Jul-18 09:50 34.053535 -117.609645 15 947ft 10kts
15-Jul-18 09:51 34.053884 -117.603835 90 947ft 19kts
15-Jul-18 09:52 34.053870 -117.598907 89 947ft 9kts
15-Jul-18 09:53 34.053873 -117.593533 89 947ft 13kts
15-Jul-18 09:54 34.053842 -117.587524 87 947ft 15kts
15-Jul-18 09:55 34.053887 -117.583170 90 947ft 3kts
15-Jul-18 09:56 34.053887 -117.583130 90 947ft 0kts
15-Jul-18 09:57 34.053887 -117.583130 90 947ft 0kts
15-Jul-18 09:58 34.054061 -117.582732 11 947ft 5kts
15-Jul-18 09:59 34.055023 -117.585984 270 947ft 62kts
15-Jul-18 10:00 34.060223 -117.610934 285 1457ft 87kts
15-Jul-18 10:01 34.061279 -117.638086 246 2013ft 82kts
15-Jul-18 10:02 34.049095 -117.661414 231 2504ft 81kts
15-Jul-18 10:03 34.030545 -117.673609 176 2880ft 87kts
15-Jul-18 10:04 34.006361 -117.670333 181 2593ft 95kts
15-Jul-18 10:05 33.979118 -117.670883 185 2535ft 98kts
15-Jul-18 10:06 33.951945 -117.676178 194 2431ft 99kts
15-Jul-18 10:07 33.926069 -117.679348 189 2583ft 91kts
15-Jul-18 10:08 33.900559 -117.679904 176 2730ft 93kts
15-Jul-18 10:09 33.873954 -117.676743 182 2957ft 91kts
15-Jul-18 10:10 33.848876 -117.681696 202 3265ft 90kts
15-Jul-18 10:11 33.826660 -117.694845 229 3519ft 89kts
15-Jul-18 10:12 33.809504 -117.716598 227 3576ft 90kts
15-Jul-18 10:13 33.786135 -117.729503 190 3362ft 103kts
15-Jul-18 10:14 33.759555 -117.736792 234 2939ft 97kts
15-Jul-18 10:15 33.756915 -117.767072 273 2497ft 91kts
15-Jul-18 10:16 33.760272 -117.797459 278 2170ft 94kts
15-Jul-18 10:17 33.757393 -117.827582 222 1864ft 93kts
15-Jul-18 10:18 33.732895 -117.838078 197 1457ft 92kts
15-Jul-18 10:19 33.711152 -117.847072 203 1269ft 70kts
15-Jul-18 10:20 33.694522 -117.856890 206 385ft 63kts
15-Jul-18 10:21 33.680331 -117.865799 207 59ft 42kts
15-Jul-18 10:22 33.677909 -117.868085 293 59ft 0kts
15-Jul-18 10:23 33.677192 -117.869456 207 59ft 18kts
15-Jul-18 10:24 33.676415 -117.871043 29 59ft 0kts
15-Jul-18 10:25 33.676415 -117.871043 29 59ft 0kts
15-Jul-18 10:26 33.676415 -117.871043 29 59ft 0kts
15-Jul-18 10:27 33.676415 -117.871043 29 59ft 0kts
15-Jul-18 10:28 33.676415 -117.871043 29 59ft 0kts
15-Jul-18 10:29 33.676415 -117.871043 29 59ft 0kts
15-Jul-18 10:30 33.676415 -117.871043 29 59ft 0kts
15-Jul-18 10:31 33.676415 -117.871043 29 59ft 0kts
15-Jul-18 10:32 33.676415 -117.871043 29 59ft 0kts
15-Jul-18 10:33 33.676415 -117.871043 29 59ft 0kts
15-Jul-18 10:34 33.676415 -117.871043 29 59ft 0kts
15-Jul-18 10:35 33.676415 -117.871043 29 59ft 0kts
15-Jul-18 10:36 33.676415 -117.871043 29 59ft 0kts

Navigation Log

Ident Type
Flight plan parsing failed, navigation log unavailable